Time;durP1;ratioP1;P1;durP2;ratioP2;P2;SDS_P1;SDS_P2;PMS_P1;PMS_P2;Temp;Humidity;BMP_temperature;BMP_pressure;BME280_temperature;BME280_humidity;BME280_pressure;Samples;Min_cycle;Max_cycle;Signal;HPM_P1;HPM_P2
2023/07/27 00:00:05;;;;;;;12.50;4.03;;;16.50;99.90;;;;;;5013435;28;20028;-84
2023/07/27 00:02:31;;;;;;;14.55;4.00;;;16.50;99.90;;;;;;5013456;28;20014;-82
2023/07/27 00:04:56;;;;;;;7.00;3.13;;;16.50;99.90;;;;;;5013115;28;20081;-80
2023/07/27 00:07:23;;;;;;;13.10;3.72;;;16.40;99.90;;;;;;5012888;28;20085;-81
2023/07/27 00:09:49;;;;;;;11.35;3.53;;;16.40;99.90;;;;;;5019382;28;20029;-83
2023/07/27 00:12:14;;;;;;;11.35;3.25;;;16.40;99.90;;;;;;4995528;28;20115;-82
2023/07/27 00:14:40;;;;;;;10.18;3.55;;;16.40;99.90;;;;;;5012781;28;20026;-82
2023/07/27 00:17:06;;;;;;;12.63;2.30;;;16.40;99.90;;;;;;5012896;28;20488;-82
2023/07/27 01:19:44;;;;;;;8.80;2.55;;;16.20;99.90;;;;;;5476731;23;20049;-83
2023/07/27 01:22:33;;;;;;;8.07;2.38;;;16.20;99.90;;;;;;5043945;28;20021;-82
2023/07/27 01:25:37;;;;;;;9.68;2.58;;;16.20;99.90;;;;;;5049949;28;20024;-83
2023/07/27 01:28:13;;;;;;;6.65;2.25;;;16.20;99.90;;;;;;4966383;28;20489;-84
2023/07/27 01:31:08;;;;;;;7.45;3.15;;;16.20;99.90;;;;;;4950064;28;20042;-82
2023/07/27 01:33:43;;;;;;;16.50;3.53;;;16.20;99.90;;;;;;4996608;28;20029;-82
2023/07/27 01:36:19;;;;;;;8.13;3.67;;;16.20;99.90;;;;;;5030330;28;20017;-85
2023/07/27 01:38:47;;;;;;;13.13;5.32;;;16.20;99.90;;;;;;5030293;28;20026;-82
2023/07/27 01:41:15;;;;;;;17.40;4.70;;;16.20;99.90;;;;;;5029973;28;20030;-82
2023/07/27 01:43:41;;;;;;;12.88;4.25;;;16.20;99.90;;;;;;5030634;28;20025;-84
2023/07/27 01:46:08;;;;;;;16.63;4.40;;;16.10;99.90;;;;;;5029588;28;20025;-82
2023/07/27 01:48:40;;;;;;;14.45;4.38;;;16.10;99.90;;;;;;5008188;28;21032;-83
2023/07/27 01:51:08;;;;;;;12.90;4.85;;;16.10;99.90;;;;;;5012652;28;20026;-81
2023/07/27 01:53:35;;;;;;;15.68;4.63;;;16.10;99.90;;;;;;5025590;28;20017;-81
2023/07/27 01:56:04;;;;;;;9.23;3.67;;;16.10;99.90;;;;;;5029719;28;20615;-83
2023/07/27 01:58:31;;;;;;;11.43;3.78;;;16.10;99.90;;;;;;5030172;28;20117;-82
2023/07/27 02:00:57;;;;;;;13.07;3.70;;;16.10;99.90;;;;;;5034629;28;20037;-82
2023/07/27 02:03:24;;;;;;;9.73;3.42;;;16.20;99.90;;;;;;5016112;28;20063;-83
2023/07/27 02:05:50;;;;;;;11.65;3.55;;;16.10;99.90;;;;;;5034091;28;20482;-81
2023/07/27 02:08:15;;;;;;;6.72;3.10;;;16.20;99.90;;;;;;5034171;28;20041;-83
2023/07/27 02:10:41;;;;;;;9.98;3.47;;;16.20;99.90;;;;;;5033724;28;20501;-83
2023/07/27 02:13:23;;;;;;;7.93;2.90;;;16.20;99.90;;;;;;5034047;28;20022;-85
2023/07/27 02:16:06;;;;;;;11.57;2.65;;;16.20;99.90;;;;;;5015954;28;20172;-84
2023/07/27 03:19:41;;;;;;;7.43;2.05;;;16.40;99.90;;;;;;5188030;23;20091;-82
2023/07/27 03:22:06;;;;;;;7.80;2.00;;;16.50;99.90;;;;;;4974944;28;20019;-82
2023/07/27 03:24:33;;;;;;;13.25;2.50;;;16.50;99.90;;;;;;4973628;28;20030;-84
2023/07/27 03:26:58;;;;;;;11.10;3.15;;;16.50;99.90;;;;;;4974944;28;20110;-83
2023/07/27 03:29:24;;;;;;;7.32;1.98;;;16.50;99.90;;;;;;4961230;28;20613;-83
2023/07/27 03:31:50;;;;;;;8.82;1.83;;;16.50;99.90;;;;;;4955554;28;20135;-83
2023/07/27 03:34:15;;;;;;;12.20;1.90;;;16.50;99.90;;;;;;4953850;28;20144;-83
2023/07/27 03:36:41;;;;;;;8.82;1.60;;;16.50;99.90;;;;;;4954299;28;20412;-82
2023/07/27 03:39:08;;;;;;;10.70;1.98;;;16.50;99.90;;;;;;4955293;28;20024;-84
2023/07/27 03:41:33;;;;;;;12.25;2.15;;;16.50;99.90;;;;;;4954904;28;20028;-82
2023/07/27 03:43:59;;;;;;;7.90;1.77;;;16.60;99.90;;;;;;4954810;28;20544;-82
2023/07/27 03:46:25;;;;;;;12.65;2.60;;;16.60;99.90;;;;;;4954989;28;20444;-82
2023/07/27 03:48:51;;;;;;;7.50;2.83;;;16.60;99.90;;;;;;4954787;28;20027;-83
2023/07/27 03:51:16;;;;;;;6.10;1.55;;;16.60;99.90;;;;;;4955159;28;20027;-82
2023/07/27 03:53:42;;;;;;;18.45;2.08;;;16.60;99.90;;;;;;4955137;28;20075;-82
2023/07/27 03:56:08;;;;;;;6.18;1.55;;;16.60;99.90;;;;;;4954960;28;20027;-83
2023/07/27 03:58:34;;;;;;;8.48;1.90;;;16.60;99.90;;;;;;4953280;28;20018;-82
2023/07/27 04:00:59;;;;;;;8.32;1.50;;;16.70;99.90;;;;;;4955094;28;20082;-82
2023/07/27 04:03:25;;;;;;;7.45;1.30;;;16.60;99.90;;;;;;4954743;28;20031;-81
2023/07/27 04:05:51;;;;;;;8.82;2.05;;;16.60;99.90;;;;;;4953727;28;20019;-82
2023/07/27 04:08:18;;;;;;;3.88;1.40;;;16.70;99.90;;;;;;4954833;28;20031;-81
2023/07/27 04:10:44;;;;;;;7.47;1.80;;;16.70;99.90;;;;;;4954825;28;20509;-82
2023/07/27 04:13:10;;;;;;;4.32;1.48;;;16.70;99.90;;;;;;4954937;28;20100;-83
2023/07/27 04:15:39;;;;;;;8.52;1.55;;;16.70;99.90;;;;;;4955094;28;20030;-83
2023/07/27 05:20:14;;;;;;;11.45;2.25;;;17.00;99.90;;;;;;4943751;23;20062;-81
2023/07/27 05:22:39;;;;;;;8.93;2.03;;;17.00;99.90;;;;;;4941145;29;20032;-81
2023/07/27 05:25:08;;;;;;;6.53;1.73;;;17.00;99.90;;;;;;4934196;29;20032;-81
2023/07/27 05:27:33;;;;;;;9.73;2.08;;;17.00;99.90;;;;;;4934491;29;20023;-82
2023/07/27 05:29:59;;;;;;;6.68;1.52;;;17.00;99.90;;;;;;4934394;29;20022;-83
2023/07/27 05:32:24;;;;;;;8.00;1.67;;;17.00;99.90;;;;;;4933054;29;20040;-82
2023/07/27 05:34:50;;;;;;;12.45;2.53;;;17.10;99.90;;;;;;4933358;29;20048;-81
2023/07/27 05:37:16;;;;;;;6.93;1.77;;;17.10;99.90;;;;;;4934042;29;20028;-82
2023/07/27 05:39:41;;;;;;;16.65;2.45;;;17.10;99.90;;;;;;4934070;29;20103;-81
2023/07/27 05:42:07;;;;;;;6.07;1.75;;;17.10;99.90;;;;;;4933777;29;20034;-81
2023/07/27 05:44:33;;;;;;;7.18;1.60;;;17.10;99.90;;;;;;4932927;29;20138;-82
2023/07/27 05:46:58;;;;;;;8.77;2.08;;;17.10;99.90;;;;;;4932846;29;20040;-82
2023/07/27 05:49:26;;;;;;;10.48;1.92;;;17.10;99.90;;;;;;4933931;29;20020;-81
2023/07/27 05:51:52;;;;;;;10.63;1.70;;;17.20;99.90;;;;;;4934278;29;20389;-81
2023/07/27 05:54:17;;;;;;;9.63;2.03;;;17.20;99.90;;;;;;4934295;29;20028;-81
2023/07/27 05:56:43;;;;;;;8.77;1.80;;;17.20;99.90;;;;;;4934047;29;20034;-82
2023/07/27 05:59:08;;;;;;;7.15;1.30;;;17.20;99.90;;;;;;4934072;29;20020;-82
2023/07/27 06:01:34;;;;;;;7.90;1.63;;;17.20;99.90;;;;;;4934084;29;20045;-82
2023/07/27 06:04:02;;;;;;;11.05;1.75;;;17.30;99.90;;;;;;4933913;29;20032;-80
2023/07/27 06:06:27;;;;;;;6.13;1.05;;;17.20;99.90;;;;;;4934082;29;20024;-82
2023/07/27 06:08:53;;;;;;;3.78;0.82;;;17.30;99.90;;;;;;4934036;29;20030;-83
2023/07/27 06:11:19;;;;;;;8.25;1.45;;;17.30;99.90;;;;;;4932492;29;20154;-81
2023/07/27 06:13:46;;;;;;;4.82;1.05;;;17.30;99.90;;;;;;4933677;29;20475;-81
2023/07/27 06:16:12;;;;;;;5.63;1.20;;;17.30;99.90;;;;;;4933397;29;20020;-82
2023/07/27 07:18:11;;;;;;;10.70;2.08;;;17.70;99.90;;;;;;5977000;23;20010;-83
2023/07/27 07:20:37;;;;;;;6.78;1.55;;;17.60;99.90;;;;;;4951911;28;20058;-82
2023/07/27 07:23:02;;;;;;;6.93;1.33;;;17.60;99.90;;;;;;4953701;29;20034;-82
2023/07/27 07:25:28;;;;;;;6.55;1.65;;;17.60;99.90;;;;;;4954436;29;20023;-81
2023/07/27 07:27:54;;;;;;;9.05;1.88;;;17.60;99.90;;;;;;4954148;29;20031;-82
2023/07/27 07:30:19;;;;;;;4.78;1.40;;;17.60;99.90;;;;;;4954138;28;20026;-81
2023/07/27 07:32:45;;;;;;;3.80;1.30;;;17.70;99.90;;;;;;4954628;29;20034;-82
2023/07/27 07:35:11;;;;;;;7.53;1.95;;;17.60;99.90;;;;;;4953692;29;20100;-82
2023/07/27 07:37:36;;;;;;;8.73;1.65;;;17.70;99.90;;;;;;4954160;29;20102;-81
2023/07/27 07:40:02;;;;;;;11.65;1.58;;;17.70;99.90;;;;;;4954331;28;20354;-82
2023/07/27 07:42:28;;;;;;;7.78;1.58;;;17.70;99.90;;;;;;4954052;29;20038;-81
2023/07/27 07:44:53;;;;;;;8.88;1.70;;;17.70;99.90;;;;;;4954267;29;20054;-81
2023/07/27 07:47:19;;;;;;;7.55;1.95;;;17.70;99.90;;;;;;4952267;28;20038;-82
2023/07/27 07:49:45;;;;;;;5.03;1.20;;;17.80;99.90;;;;;;4951971;28;20023;-82
2023/07/27 07:52:10;;;;;;;11.50;1.73;;;17.70;99.90;;;;;;4952723;29;20085;-81
2023/07/27 07:54:36;;;;;;;11.07;2.00;;;17.80;99.90;;;;;;4954477;29;20020;-82
2023/07/27 07:57:02;;;;;;;10.48;1.65;;;17.70;99.90;;;;;;4953289;28;20019;-82
2023/07/27 07:59:27;;;;;;;8.52;1.60;;;17.70;99.90;;;;;;4953816;28;20026;-82
2023/07/27 08:01:53;;;;;;;3.80;1.50;;;17.80;99.90;;;;;;4954276;28;20046;-81
2023/07/27 08:04:19;;;;;;;10.07;1.80;;;17.80;99.90;;;;;;4953405;29;20112;-81
2023/07/27 08:06:45;;;;;;;5.75;1.35;;;17.90;99.90;;;;;;4953843;28;20050;-82
2023/07/27 08:09:11;;;;;;;4.68;1.33;;;17.90;99.90;;;;;;4953041;28;20023;-82
2023/07/27 08:11:37;;;;;;;7.32;1.48;;;17.90;99.90;;;;;;4952814;29;20029;-81
2023/07/27 08:14:03;;;;;;;3.90;1.10;;;17.90;99.90;;;;;;4953721;28;20504;-82
2023/07/27 08:16:32;;;;;;;3.58;1.25;;;17.90;99.90;;;;;;4953885;28;20016;-81
2023/07/27 09:18:39;;;;;;;9.10;1.92;;;17.90;99.90;;;;;;5878231;23;20043;-83
2023/07/27 09:21:09;;;;;;;6.47;1.88;;;17.90;99.90;;;;;;4940689;29;20472;-84
2023/07/27 09:23:35;;;;;;;5.13;1.92;;;17.80;99.90;;;;;;4952418;28;20034;-82
2023/07/27 09:26:01;;;;;;;8.60;2.70;;;17.80;99.90;;;;;;4952186;29;20034;-82
2023/07/27 09:28:29;;;;;;;11.38;2.15;;;17.80;99.90;;;;;;4951406;28;20051;-82
2023/07/27 09:30:59;;;;;;;9.35;1.92;;;17.80;99.90;;;;;;4951301;28;20023;-82
2023/07/27 09:33:25;;;;;;;7.53;1.40;;;17.80;99.90;;;;;;4952060;28;20033;-82
2023/07/27 09:35:51;;;;;;;5.63;2.03;;;17.80;99.90;;;;;;4952236;29;20110;-83
2023/07/27 09:38:27;;;;;;;5.53;1.40;;;17.70;99.90;;;;;;4952540;28;20074;-83
2023/07/27 09:40:53;;;;;;;12.73;2.22;;;17.80;99.90;;;;;;4952335;28;20024;-84
2023/07/27 09:43:22;;;;;;;4.25;1.25;;;17.80;99.90;;;;;;4952292;28;20532;-83
2023/07/27 09:45:48;;;;;;;4.97;1.52;;;17.80;99.90;;;;;;4950960;29;20432;-83
2023/07/27 09:48:14;;;;;;;13.25;4.07;;;17.90;99.90;;;;;;4952146;28;20039;-83
2023/07/27 09:50:42;;;;;;;4.43;1.02;;;17.90;99.90;;;;;;4950486;29;20026;-83
2023/07/27 09:53:11;;;;;;;8.25;2.35;;;18.00;99.90;;;;;;4952170;28;20019;-84
2023/07/27 09:55:38;;;;;;;3.70;0.80;;;18.00;99.90;;;;;;4951123;28;20424;-82
2023/07/27 09:58:05;;;;;;;7.47;2.72;;;18.10;99.90;;;;;;4951679;28;20023;-83
2023/07/27 10:00:31;;;;;;;5.95;2.25;;;18.20;99.90;;;;;;4951089;28;20023;-82
2023/07/27 10:02:57;;;;;;;3.10;1.20;;;18.20;99.90;;;;;;4952790;28;20034;-85
2023/07/27 10:05:23;;;;;;;6.82;1.58;;;18.20;99.90;;;;;;4950565;29;20482;-83
2023/07/27 10:07:48;;;;;;;4.15;1.27;;;18.20;99.90;;;;;;4952241;28;20058;-85
2023/07/27 10:10:42;;;;;;;6.05;1.67;;;18.00;99.90;;;;;;4952563;28;20502;-83
2023/07/27 10:13:13;;;;;;;16.80;2.72;;;18.00;99.90;;;;;;4944495;29;20543;-82
2023/07/27 10:15:43;;;;;;;6.95;1.70;;;18.00;99.90;;;;;;4952582;28;20114;-84
2023/07/27 11:20:02;;;;;;;13.45;1.98;;;18.00;99.90;;;;;;5229790;23;20134;-83
2023/07/27 11:22:28;;;;;;;12.95;2.05;;;18.00;99.90;;;;;;4954629;28;20114;-83
2023/07/27 11:24:54;;;;;;;11.85;2.40;;;18.00;99.90;;;;;;4953167;29;20059;-84
2023/07/27 11:27:20;;;;;;;15.15;2.97;;;18.00;99.90;;;;;;4947550;29;20417;-84
2023/07/27 11:29:49;;;;;;;16.52;3.33;;;18.00;99.90;;;;;;4954311;28;20122;-84
2023/07/27 11:32:14;;;;;;;20.05;3.63;;;18.00;99.90;;;;;;4953878;28;20019;-84
2023/07/27 11:34:40;;;;;;;19.67;3.42;;;18.00;99.90;;;;;;4954480;28;20062;-84
2023/07/27 11:37:06;;;;;;;12.68;2.38;;;18.10;99.90;;;;;;4952940;29;20107;-85
2023/07/27 11:39:31;;;;;;;12.70;4.78;;;18.00;99.90;;;;;;4954211;28;20098;-86
2023/07/27 11:41:57;;;;;;;11.73;2.92;;;18.00;99.90;;;;;;4954509;29;20034;-84
2023/07/27 11:44:23;;;;;;;11.18;3.30;;;18.00;99.90;;;;;;4954323;28;20401;-88
2023/07/27 11:46:52;;;;;;;13.65;2.80;;;18.00;99.90;;;;;;4952878;29;20043;-84
2023/07/27 11:49:22;;;;;;;15.48;3.17;;;18.00;99.90;;;;;;4952744;28;20082;-85
2023/07/27 11:51:48;;;;;;;8.73;2.75;;;18.10;99.90;;;;;;4954142;28;20051;-85
2023/07/27 11:54:25;;;;;;;15.45;2.67;;;18.20;99.90;;;;;;4953908;28;20480;-85
2023/07/27 11:56:53;;;;;;;13.80;4.18;;;18.20;99.90;;;;;;4952517;28;20031;-87
2023/07/27 11:59:22;;;;;;;13.65;2.47;;;18.20;99.90;;;;;;4953259;28;20019;-88
2023/07/27 12:01:51;;;;;;;15.38;3.67;;;18.20;99.90;;;;;;4954050;28;20111;-86
2023/07/27 12:04:21;;;;;;;16.38;3.53;;;18.20;99.90;;;;;;4953701;28;20736;-86
2023/07/27 12:06:47;;;;;;;18.08;4.10;;;18.10;99.90;;;;;;4954362;29;20357;-88
2023/07/27 12:09:13;;;;;;;19.17;4.60;;;17.90;99.90;;;;;;4953512;28;20026;-88
2023/07/27 12:11:39;;;;;;;17.45;4.10;;;18.00;99.90;;;;;;4953030;29;20027;-88
2023/07/27 12:14:09;;;;;;;19.50;3.80;;;18.00;99.90;;;;;;4954077;29;20030;-87
2023/07/27 12:16:42;;;;;;;30.33;4.32;;;18.00;99.90;;;;;;4954486;28;20094;-86
2023/07/27 13:18:41;;;;;;;10.68;2.50;;;18.40;99.90;;;;;;5905572;23;20092;-86
2023/07/27 13:21:07;;;;;;;7.45;1.88;;;18.40;99.90;;;;;;4945954;28;20031;-86
2023/07/27 13:23:32;;;;;;;7.60;1.65;;;18.50;99.90;;;;;;4951058;29;20027;-87
2023/07/27 13:25:58;;;;;;;8.52;2.05;;;18.40;99.90;;;;;;4953132;29;20090;-87
2023/07/27 13:28:23;;;;;;;10.65;2.10;;;18.30;99.90;;;;;;4952696;28;20027;-87
2023/07/27 13:30:49;;;;;;;8.45;2.15;;;18.20;99.90;;;;;;4951608;29;20028;-86
2023/07/27 13:33:15;;;;;;;8.93;1.83;;;18.20;99.90;;;;;;4952781;29;20027;-86
2023/07/27 13:35:40;;;;;;;7.00;2.05;;;18.20;99.90;;;;;;4952264;28;20035;-86
2023/07/27 13:38:06;;;;;;;11.98;1.80;;;18.30;99.90;;;;;;4951360;29;20043;-87
2023/07/27 13:40:32;;;;;;;3.40;1.05;;;18.40;99.90;;;;;;4952187;28;20055;-86
2023/07/27 13:42:57;;;;;;;5.90;1.67;;;18.60;99.90;;;;;;4951595;28;20036;-86
2023/07/27 13:45:23;;;;;;;6.03;0.93;;;18.70;99.90;;;;;;4952910;29;20019;-85
2023/07/27 13:47:48;;;;;;;6.70;1.80;;;18.70;99.90;;;;;;4952340;29;20046;-89
2023/07/27 13:50:14;;;;;;;6.13;1.40;;;18.70;99.90;;;;;;4945529;28;20047;-87
2023/07/27 13:52:40;;;;;;;3.70;0.85;;;18.80;99.90;;;;;;4952730;29;20483;-85
2023/07/27 13:55:06;;;;;;;6.05;2.00;;;18.90;99.90;;;;;;4950514;28;20074;-86
2023/07/27 13:57:31;;;;;;;4.90;1.05;;;18.90;99.90;;;;;;4956840;29;20024;-89
2023/07/27 13:59:59;;;;;;;5.22;1.05;;;18.80;99.90;;;;;;4955879;28;20158;-89
2023/07/27 14:02:25;;;;;;;7.43;1.55;;;18.80;99.90;;;;;;4956693;29;20524;-88
2023/07/27 14:04:51;;;;;;;7.78;1.65;;;18.80;99.90;;;;;;4956489;28;20110;-88
2023/07/27 14:07:16;;;;;;;8.75;2.08;;;18.80;99.90;;;;;;4956927;29;20031;-86
2023/07/27 14:09:42;;;;;;;6.07;1.55;;;18.70;99.90;;;;;;4956548;28;20110;-88
2023/07/27 14:12:08;;;;;;;9.48;2.10;;;18.60;99.90;;;;;;4956430;29;20089;-87
2023/07/27 14:14:34;;;;;;;9.23;1.63;;;18.50;99.90;;;;;;4954613;28;20440;-87
2023/07/27 14:16:59;;;;;;;7.93;2.08;;;18.40;99.90;;;;;;4953991;29;20595;-85
2023/07/27 16:18:32;;;;;;;7.20;2.95;;;18.20;99.90;;;;;;6032496;23;19917;-88
2023/07/27 16:20:58;;;;;;;10.95;3.63;;;18.30;99.90;;;;;;4939163;29;20028;-87
2023/07/27 16:23:24;;;;;;;10.07;3.78;;;18.40;99.90;;;;;;4954259;28;20027;-89
2023/07/27 16:25:49;;;;;;;9.40;3.38;;;18.50;99.90;;;;;;4954923;29;20024;-89
2023/07/27 16:28:15;;;;;;;12.68;4.38;;;18.40;99.90;;;;;;4953932;28;20435;-86
2023/07/27 16:30:42;;;;;;;12.48;3.83;;;18.40;99.90;;;;;;4948709;28;20027;-86
2023/07/27 16:33:09;;;;;;;11.65;3.38;;;18.30;99.90;;;;;;4954337;28;20035;-85
2023/07/27 16:35:34;;;;;;;14.45;3.65;;;18.30;99.90;;;;;;4953208;28;20020;-87
2023/07/27 16:38:00;;;;;;;14.77;3.97;;;18.20;99.90;;;;;;4953496;29;20155;-89
2023/07/27 16:40:26;;;;;;;13.57;4.63;;;18.20;99.90;;;;;;4953599;28;20581;-87
2023/07/27 16:42:51;;;;;;;12.75;4.00;;;18.20;99.90;;;;;;4953297;28;20031;-85
2023/07/27 16:45:19;;;;;;;16.92;4.13;;;18.20;99.90;;;;;;4942196;29;20031;-85
2023/07/27 16:47:45;;;;;;;13.73;3.95;;;18.20;99.90;;;;;;4936654;29;20039;-86
2023/07/27 16:50:11;;;;;;;15.85;4.32;;;18.20;99.90;;;;;;4941127;29;20023;-87
2023/07/27 16:52:37;;;;;;;10.00;3.55;;;18.30;99.90;;;;;;4942270;28;20051;-88
2023/07/27 16:55:03;;;;;;;18.42;3.88;;;18.30;99.90;;;;;;4951576;29;20027;-85
2023/07/27 16:57:29;;;;;;;15.57;4.45;;;18.30;99.90;;;;;;4951340;28;20110;-87
2023/07/27 16:59:54;;;;;;;13.07;4.07;;;18.30;99.90;;;;;;4950863;28;20086;-88
2023/07/27 17:02:20;;;;;;;11.95;3.75;;;18.20;99.90;;;;;;4951498;29;20026;-87
2023/07/27 17:04:47;;;;;;;9.52;3.40;;;18.10;99.90;;;;;;4951767;29;20031;-86
2023/07/27 17:07:13;;;;;;;10.07;3.75;;;18.10;99.90;;;;;;4952764;29;20039;-86
2023/07/27 17:09:39;;;;;;;9.52;3.90;;;18.10;99.90;;;;;;4952743;28;20049;-85
2023/07/27 17:12:07;;;;;;;11.23;4.07;;;18.20;99.90;;;;;;4943735;29;20016;-86
2023/07/27 17:14:32;;;;;;;10.30;4.20;;;18.10;99.90;;;;;;4951784;29;20038;-87
2023/07/27 17:16:58;;;;;;;15.45;4.00;;;18.20;99.90;;;;;;4946067;28;20074;-87
2023/07/27 18:18:57;;;;;;;15.07;4.75;;;18.10;99.90;;;;;;5908509;23;19922;-87
2023/07/27 18:21:23;;;;;;;11.07;4.82;;;18.10;99.90;;;;;;4973978;28;20091;-86
2023/07/27 18:23:49;;;;;;;11.35;4.78;;;18.10;99.90;;;;;;4972212;28;20106;-83
2023/07/27 18:26:19;;;;;;;12.73;5.38;;;18.10;99.90;;;;;;4973981;28;20022;-84
2023/07/27 18:28:45;;;;;;;13.02;5.18;;;18.00;99.90;;;;;;4971328;28;20038;-86
2023/07/27 18:31:11;;;;;;;11.38;4.13;;;18.00;99.90;;;;;;4959799;28;20504;-86
2023/07/27 18:33:36;;;;;;;14.30;4.45;;;18.00;99.90;;;;;;4958662;28;20549;-85
2023/07/27 18:36:13;;;;;;;6.93;4.10;;;18.00;99.90;;;;;;4954760;28;20453;-84
2023/07/27 18:38:39;;;;;;;9.93;4.40;;;18.00;99.90;;;;;;4958981;28;20030;-83
2023/07/27 18:41:06;;;;;;;11.15;4.35;;;18.00;99.90;;;;;;4958360;28;20023;-85
2023/07/27 18:43:32;;;;;;;7.82;3.65;;;18.00;99.90;;;;;;4959779;28;20027;-85
2023/07/27 18:45:58;;;;;;;10.35;4.43;;;18.00;99.90;;;;;;4958592;28;20068;-87
2023/07/27 18:48:23;;;;;;;12.13;3.35;;;18.00;99.90;;;;;;4954544;28;20066;-88
2023/07/27 18:50:53;;;;;;;11.20;4.05;;;17.90;99.90;;;;;;4952900;28;20027;-89
2023/07/27 18:53:19;;;;;;;12.05;4.18;;;17.90;99.90;;;;;;4955469;28;20480;-84
2023/07/27 18:55:51;;;;;;;8.77;3.75;;;17.80;99.90;;;;;;4951251;28;20081;-84
2023/07/27 18:58:17;;;;;;;11.95;3.90;;;17.90;99.90;;;;;;4952942;28;20035;-84
2023/07/27 19:00:50;;;;;;;8.93;3.80;;;17.90;99.90;;;;;;4951429;28;20039;-84
2023/07/27 19:03:18;;;;;;;13.27;4.70;;;17.90;99.90;;;;;;4951216;28;20400;-86
2023/07/27 19:05:44;;;;;;;6.35;4.40;;;17.80;99.90;;;;;;4961276;28;20031;-85
2023/07/27 19:08:09;;;;;;;11.73;3.47;;;17.90;99.90;;;;;;4954489;28;20385;-86
2023/07/27 19:10:35;;;;;;;5.65;3.10;;;17.90;99.90;;;;;;4953068;28;20051;-87
2023/07/27 19:13:01;;;;;;;8.52;3.50;;;17.90;99.90;;;;;;4953262;28;20038;-86
2023/07/27 19:15:27;;;;;;;16.67;3.90;;;17.80;99.90;;;;;;4951499;28;20047;-90
2023/07/27 19:17:53;;;;;;;10.07;3.72;;;17.80;99.90;;;;;;4953787;28;20023;-85
2023/07/27 20:19:52;;;;;;;9.70;4.00;;;17.60;99.90;;;;;;5547457;23;20070;-84
2023/07/27 20:22:17;;;;;;;10.45;4.45;;;17.60;99.90;;;;;;4970097;28;20384;-86
2023/07/27 20:24:43;;;;;;;11.88;3.88;;;17.60;99.90;;;;;;4968264;28;20660;-84
2023/07/27 20:27:08;;;;;;;8.52;4.28;;;17.60;99.90;;;;;;4972240;28;20039;-85
2023/07/27 20:29:34;;;;;;;10.77;4.93;;;17.60;99.90;;;;;;4962685;28;20029;-84
2023/07/27 20:32:00;;;;;;;12.52;4.00;;;17.60;99.90;;;;;;4950527;28;20031;-86
2023/07/27 20:34:25;;;;;;;9.60;4.22;;;17.60;99.90;;;;;;4950438;28;20465;-83
2023/07/27 20:36:51;;;;;;;11.20;4.10;;;17.60;99.90;;;;;;4953053;28;20050;-84
2023/07/27 20:39:17;;;;;;;13.40;3.70;;;17.60;99.90;;;;;;4950522;28;20037;-85
2023/07/27 20:41:42;;;;;;;10.75;4.20;;;17.60;99.90;;;;;;4952653;28;20385;-86
2023/07/27 20:44:08;;;;;;;10.27;3.63;;;17.60;99.90;;;;;;4949475;28;20085;-83
2023/07/27 20:46:35;;;;;;;13.15;3.90;;;17.60;99.90;;;;;;4950978;28;20386;-85
2023/07/27 20:49:01;;;;;;;10.63;4.75;;;17.60;99.90;;;;;;4948525;28;20031;-84
2023/07/27 20:51:27;;;;;;;11.07;3.88;;;17.60;99.90;;;;;;4948768;28;20392;-87
2023/07/27 20:53:53;;;;;;;9.07;3.38;;;17.60;99.90;;;;;;4952326;28;20488;-84
2023/07/27 20:56:19;;;;;;;7.28;3.42;;;17.60;99.90;;;;;;4950325;28;20117;-84
2023/07/27 20:58:45;;;;;;;12.40;3.33;;;17.60;99.90;;;;;;4950343;28;20481;-85
2023/07/27 21:01:12;;;;;;;7.43;3.28;;;17.60;99.90;;;;;;4943289;28;20542;-83
2023/07/27 21:03:38;;;;;;;10.40;3.42;;;17.60;99.90;;;;;;4951701;28;20043;-90
2023/07/27 21:06:04;;;;;;;11.68;3.85;;;17.60;99.90;;;;;;4947613;28;20027;-87
2023/07/27 21:08:32;;;;;;;11.35;4.38;;;17.60;99.90;;;;;;4949927;28;20046;-87
2023/07/27 21:10:58;;;;;;;9.40;4.15;;;17.60;99.90;;;;;;4949854;28;20019;-86
2023/07/27 21:13:23;;;;;;;9.88;4.65;;;17.60;99.90;;;;;;4949544;28;20090;-85
2023/07/27 21:16:06;;;;;;;9.52;3.75;;;17.60;99.90;;;;;;4951372;28;20039;-85
2023/07/27 21:18:32;;;;;;;16.52;4.55;;;17.60;99.90;;;;;;4949304;28;20085;-85
2023/07/27 21:20:58;;;;;;;14.95;5.70;;;17.60;99.90;;;;;;4950073;28;20038;-86
2023/07/27 21:23:25;;;;;;;15.52;4.50;;;17.50;99.90;;;;;;4950351;28;20027;-85
2023/07/27 21:26:01;;;;;;;10.18;4.18;;;17.50;99.90;;;;;;4950049;28;20030;-85
2023/07/27 21:28:28;;;;;;;17.27;5.32;;;17.50;99.90;;;;;;4950324;28;20031;-87
2023/07/27 21:30:59;;;;;;;11.40;4.00;;;17.50;99.90;;;;;;4951216;28;20098;-85
2023/07/27 21:33:24;;;;;;;13.40;4.85;;;17.50;99.90;;;;;;4950464;28;20484;-86
2023/07/27 21:35:50;;;;;;;7.75;4.05;;;17.50;99.90;;;;;;4951211;28;20041;-85
2023/07/27 21:38:16;;;;;;;12.73;4.20;;;17.40;99.90;;;;;;4950026;28;20376;-85
2023/07/27 21:40:42;;;;;;;9.02;3.65;;;17.50;99.90;;;;;;4950776;28;20502;-86
2023/07/27 21:43:07;;;;;;;12.80;3.92;;;17.40;99.90;;;;;;4949464;28;20043;-86
2023/07/27 21:45:35;;;;;;;13.27;3.90;;;17.40;99.90;;;;;;4949600;28;20023;-87
2023/07/27 21:48:00;;;;;;;12.60;4.10;;;17.50;99.90;;;;;;4949248;28;20568;-84
2023/07/27 21:50:26;;;;;;;8.20;3.28;;;17.50;99.90;;;;;;4933125;23;20143;-82
2023/07/27 21:52:52;;;;;;;11.57;3.70;;;17.50;99.90;;;;;;4903297;29;20037;-83
2023/07/27 21:55:17;;;;;;;10.05;3.50;;;17.50;99.90;;;;;;4888528;29;20112;-82
2023/07/27 21:57:43;;;;;;;14.32;4.28;;;17.40;99.90;;;;;;4892090;29;20188;-81
2023/07/27 22:00:09;;;;;;;11.90;3.88;;;17.50;99.90;;;;;;4889625;29;20024;-82
2023/07/27 22:02:35;;;;;;;17.88;4.13;;;17.40;99.90;;;;;;4886533;29;20393;-81
2023/07/27 22:05:01;;;;;;;17.27;4.95;;;17.40;99.90;;;;;;4885170;29;20482;-83
2023/07/27 22:07:26;;;;;;;16.50;4.57;;;17.40;99.90;;;;;;4883223;29;21516;-82
2023/07/27 22:09:52;;;;;;;13.13;3.95;;;17.50;99.90;;;;;;4882241;29;20103;-82
2023/07/27 22:12:18;;;;;;;16.38;4.63;;;17.40;99.90;;;;;;4880474;29;20032;-82
2023/07/27 22:14:44;;;;;;;13.48;4.30;;;17.50;99.90;;;;;;4879154;29;20033;-82
2023/07/27 22:17:09;;;;;;;16.55;4.65;;;17.40;99.90;;;;;;4882809;29;20480;-83
2023/07/27 22:19:35;;;;;;;12.20;4.50;;;17.50;99.90;;;;;;4881686;29;20033;-82
2023/07/27 22:22:00;;;;;;;14.82;4.45;;;17.50;99.90;;;;;;4881736;29;20095;-81
2023/07/27 22:24:28;;;;;;;13.07;4.75;;;17.50;99.90;;;;;;4880336;29;20127;-82
2023/07/27 22:26:54;;;;;;;14.60;4.32;;;17.50;99.90;;;;;;4887155;29;20497;-82
2023/07/27 22:29:20;;;;;;;10.55;3.35;;;17.50;99.90;;;;;;4886207;29;20044;-81
2023/07/27 22:31:45;;;;;;;10.05;3.67;;;17.50;99.90;;;;;;4897893;29;20481;-81
2023/07/27 22:34:11;;;;;;;12.75;4.57;;;17.50;99.90;;;;;;4898711;29;20042;-80
2023/07/27 22:36:36;;;;;;;18.20;4.20;;;17.50;99.90;;;;;;4902914;29;20020;-81
2023/07/27 22:39:02;;;;;;;21.75;5.07;;;17.50;99.90;;;;;;4911740;29;21474;-81
2023/07/27 22:41:28;;;;;;;19.08;4.82;;;17.50;99.90;;;;;;4898796;29;20068;-80
2023/07/27 22:43:53;;;;;;;17.52;5.13;;;17.50;99.90;;;;;;4898885;29;20025;-79
2023/07/27 22:46:19;;;;;;;10.70;4.78;;;17.50;99.90;;;;;;4913289;29;20079;-82
2023/07/27 22:51:22;;;;;;;11.45;5.13;;;17.40;99.90;;;;;;4980179;28;20105;-83
2023/07/27 22:53:49;;;;;;;11.38;4.22;;;17.40;99.90;;;;;;4976249;28;20027;-84
2023/07/27 22:56:14;;;;;;;13.38;4.80;;;17.50;99.90;;;;;;4975455;28;20106;-83
2023/07/27 22:58:40;;;;;;;12.45;4.70;;;17.50;99.90;;;;;;4975529;28;20097;-84
2023/07/27 23:01:13;;;;;;;12.18;4.32;;;17.50;99.90;;;;;;4975334;28;20026;-87
2023/07/27 23:03:39;;;;;;;15.00;5.18;;;17.50;99.90;;;;;;4982316;28;20048;-85
2023/07/27 23:06:06;;;;;;;19.02;4.80;;;17.40;99.90;;;;;;4982062;28;20050;-84
2023/07/27 23:08:31;;;;;;;16.90;5.53;;;17.40;99.90;;;;;;4975071;28;20035;-83
2023/07/27 23:10:57;;;;;;;13.07;4.30;;;17.40;99.90;;;;;;4973667;28;20022;-84
2023/07/27 23:13:24;;;;;;;16.02;4.40;;;17.50;99.90;;;;;;4973863;28;20026;-84
2023/07/27 23:15:49;;;;;;;17.13;4.63;;;17.50;99.90;;;;;;4975489;28;20025;-83
2023/07/27 23:18:15;;;;;;;10.93;4.40;;;17.50;99.90;;;;;;4975398;28;20023;-85
2023/07/27 23:20:41;;;;;;;14.75;4.35;;;17.40;99.90;;;;;;4974913;28;20072;-84
2023/07/27 23:23:07;;;;;;;11.48;4.45;;;17.50;99.90;;;;;;4973830;28;20022;-83
2023/07/27 23:25:33;;;;;;;15.80;4.68;;;17.50;99.90;;;;;;4974794;28;20361;-85
2023/07/27 23:28:02;;;;;;;8.73;3.70;;;17.50;99.90;;;;;;4974325;28;20034;-85
2023/07/27 23:30:31;;;;;;;15.65;4.78;;;17.50;99.90;;;;;;4980567;28;20455;-84
2023/07/27 23:32:57;;;;;;;16.77;4.47;;;17.40;99.90;;;;;;4974301;28;20034;-83
2023/07/27 23:35:22;;;;;;;14.93;4.25;;;17.40;99.90;;;;;;4972972;28;20015;-83
2023/07/27 23:37:49;;;;;;;9.05;4.25;;;17.40;99.90;;;;;;4974702;28;20519;-84
2023/07/27 23:40:15;;;;;;;14.32;4.47;;;17.50;99.90;;;;;;4974459;28;20029;-84
2023/07/27 23:42:41;;;;;;;16.15;4.65;;;17.50;99.90;;;;;;4974951;28;20380;-84